createdAt,value
2017-07-23T00:00:55.792Z,59.13
2017-07-23T00:02:06.149Z,59.03
2017-07-23T00:03:16.482Z,59.33
2017-07-23T00:04:26.543Z,59.23
2017-07-23T00:05:36.906Z,59.13
2017-07-23T00:06:47.244Z,59.42
2017-07-23T00:07:57.301Z,59.23
2017-07-23T00:09:07.338Z,59.23
2017-07-23T00:10:17.700Z,59.23
2017-07-23T00:11:27.728Z,58.84
2017-07-23T00:12:37.752Z,59.03
2017-07-23T00:13:48.114Z,58.74
2017-07-23T00:14:58.484Z,58.84
2017-07-23T00:16:08.521Z,58.72
2017-07-23T00:17:19.051Z,59.39
2017-07-23T00:18:29.421Z,59.1
2017-07-23T00:19:39.776Z,59.23
2017-07-23T00:20:49.813Z,59.13
2017-07-23T00:22:00.158Z,59.33
2017-07-23T00:23:10.215Z,59.49
2017-07-23T00:24:20.564Z,59.3
2017-07-23T00:25:30.904Z,59.3
2017-07-23T00:26:41.267Z,59.2
2017-07-23T00:27:51.622Z,59.1
2017-07-23T00:29:01.650Z,59.2
2017-07-23T00:30:11.684Z,59.2
2017-07-23T00:31:22.265Z,59.3
2017-07-23T00:32:32.631Z,59
2017-07-23T00:33:42.971Z,59
2017-07-23T00:34:53.045Z,59.2
2017-07-23T00:36:03.406Z,59.1
2017-07-23T00:37:13.866Z,59.2
2017-07-23T00:38:23.925Z,59.1
2017-07-23T00:39:33.970Z,59.1
2017-07-23T00:40:44.001Z,59.2
2017-07-23T00:41:54.363Z,59.2
2017-07-23T00:43:04.706Z,59.3
2017-07-23T00:44:15.059Z,59.3
2017-07-23T00:45:25.409Z,59.3
2017-07-23T00:46:35.761Z,59.39
2017-07-23T00:47:45.826Z,59.2
2017-07-23T00:48:55.857Z,59.39
2017-07-23T00:50:06.257Z,59.1
2017-07-23T00:51:16.304Z,59.2
2017-07-23T00:52:26.645Z,59.23
2017-07-23T00:53:36.994Z,59
2017-07-23T00:54:47.328Z,59.3
2017-07-23T00:55:57.675Z,59.2
2017-07-23T00:57:08.026Z,59.1
2017-07-23T00:58:18.395Z,58.91
2017-07-23T00:59:28.430Z,59.3
2017-07-23T01:00:38.795Z,59.3
2017-07-23T01:01:49.155Z,59
2017-07-23T01:02:59.518Z,59.1
2017-07-23T01:04:09.545Z,58.81
2017-07-23T01:05:19.896Z,59.39
2017-07-23T01:06:30.256Z,58.91
2017-07-23T01:07:40.626Z,59.39
2017-07-23T01:08:50.655Z,59.1
2017-07-23T01:10:00.995Z,59.2
2017-07-23T01:11:11.351Z,59.1
2017-07-23T01:12:21.382Z,59
2017-07-23T01:13:31.089Z,59.1
2017-07-23T01:14:40.816Z,59.2
2017-07-23T01:15:50.845Z,59.2
2017-07-23T01:17:01.185Z,59.2
2017-07-23T01:18:11.525Z,59.2
2017-07-23T01:19:21.552Z,59.2
2017-07-23T01:20:31.584Z,59.2
2017-07-23T01:21:41.927Z,59.2
2017-07-23T01:22:52.272Z,59.2
2017-07-23T01:24:02.628Z,59.3
2017-07-23T01:25:12.984Z,59.1
2017-07-23T01:26:23.067Z,59.3
2017-07-23T01:27:33.107Z,59.3
2017-07-23T01:28:43.147Z,59.2
2017-07-23T01:29:53.501Z,59.2
2017-07-23T01:31:03.527Z,59.3
2017-07-23T01:32:13.582Z,59.3
2017-07-23T01:33:23.599Z,59.2
2017-07-23T01:34:33.953Z,59.39
2017-07-23T01:35:43.412Z,59.59
2017-07-23T01:36:53.490Z,59.69
2017-07-23T01:38:03.840Z,59.78
2017-07-23T01:39:13.887Z,59.56
2017-07-23T01:40:24.233Z,59.59
2017-07-23T01:41:34.277Z,59.39
2017-07-23T01:42:44.631Z,59.56
2017-07-23T01:43:54.963Z,59.59
2017-07-23T01:45:05.291Z,59.49
2017-07-23T01:46:15.641Z,59.69
2017-07-23T01:47:25.674Z,59.66
2017-07-23T01:48:36.060Z,59.46
2017-07-23T01:49:46.422Z,59.56
2017-07-23T01:50:56.791Z,59.66
2017-07-23T01:52:07.150Z,59.56
2017-07-23T01:53:17.493Z,59.75
2017-07-23T01:54:27.853Z,59.66
2017-07-23T01:55:37.885Z,59.75
2017-07-23T01:56:48.231Z,59.56
2017-07-23T01:57:58.266Z,59.66
2017-07-23T01:59:07.986Z,59.56
2017-07-23T02:00:18.341Z,59.56
2017-07-23T02:01:28.673Z,59.66
2017-07-23T02:02:39.017Z,59.66
2017-07-23T02:03:48.741Z,59.56
2017-07-23T02:04:59.109Z,59.66
2017-07-23T02:06:09.153Z,59.36
2017-07-23T02:07:19.493Z,59.66
2017-07-23T02:08:29.855Z,59.75
2017-07-23T02:09:40.201Z,59.66
2017-07-23T02:10:50.228Z,59.56
2017-07-23T02:12:00.312Z,59.75
2017-07-23T02:13:10.664Z,59.66
2017-07-23T02:14:21.023Z,59.94
2017-07-23T02:15:30.741Z,59.43
2017-07-23T02:16:40.791Z,59.84
2017-07-23T02:17:50.885Z,59.82
2017-07-23T02:19:01.228Z,60.01
2017-07-23T02:20:11.828Z,59.63
2017-07-23T02:21:22.181Z,60.01
2017-07-23T02:22:32.216Z,59.63
2017-07-23T02:23:42.599Z,59.63
2017-07-23T02:24:52.940Z,59.53
2017-07-23T02:26:03.292Z,59.53
2017-07-23T02:27:13.648Z,59.72
2017-07-23T02:28:23.690Z,59.63
2017-07-23T02:29:34.104Z,59.53
2017-07-23T02:30:44.438Z,59.53
2017-07-23T02:31:54.782Z,59.63
2017-07-23T02:33:04.823Z,59.43
2017-07-23T02:34:15.168Z,59.59
2017-07-23T02:35:25.510Z,59.72
2017-07-23T02:36:35.875Z,59.91
2017-07-23T02:37:46.228Z,59.53
2017-07-23T02:38:56.582Z,59.5
2017-07-23T02:40:06.928Z,59.59
2017-07-23T02:41:17.315Z,59.53
2017-07-23T02:42:27.352Z,59.53
2017-07-23T02:43:37.709Z,59.5
2017-07-23T02:44:47.739Z,59.5
2017-07-23T02:45:58.091Z,59.59
2017-07-23T02:47:08.473Z,59.69
2017-07-23T02:48:18.811Z,59.69
2017-07-23T02:49:29.163Z,59.69
2017-07-23T02:50:39.504Z,59.69
2017-07-23T02:51:49.563Z,59.89
2017-07-23T02:52:59.578Z,59.79
2017-07-23T02:54:09.926Z,59.98
2017-07-23T02:55:19.976Z,59.59
2017-07-23T02:56:30.338Z,59.5
2017-07-23T02:57:40.371Z,59.5
2017-07-23T02:58:50.732Z,59.59
2017-07-23T03:00:01.069Z,59.59
2017-07-23T03:01:11.106Z,59.5
2017-07-23T03:33:06.596Z,57.24
2017-07-23T03:34:16.926Z,57.24
2017-07-23T03:35:26.941Z,58.3
2017-07-23T03:36:36.658Z,59.07
2017-07-23T03:37:47.021Z,59.45
2017-07-23T03:38:57.411Z,59.27
2017-07-23T03:40:07.434Z,59.39
2017-07-23T03:41:17.467Z,59.58
2017-07-23T03:42:27.494Z,59.48
2017-07-23T03:43:37.835Z,60
2017-07-23T03:44:47.860Z,60.19
2017-07-23T03:45:58.202Z,60.13
2017-07-23T03:47:08.555Z,59.55
2017-07-23T03:48:18.639Z,59.83
2017-07-23T03:49:28.993Z,59.58
2017-07-23T03:50:39.380Z,59.77
2017-07-23T03:51:49.720Z,59.48
2017-07-23T03:53:00.062Z,59.51
2017-07-23T03:54:10.413Z,59.41
2017-07-23T03:55:20.749Z,59.51
2017-07-23T03:56:31.135Z,59.7
2017-07-23T03:57:41.484Z,59.44
2017-07-23T03:58:51.839Z,59.83
2017-07-23T04:00:02.199Z,58.7
2017-07-23T04:01:12.231Z,58.89
2017-07-23T04:02:22.635Z,59.18
2017-07-23T04:03:32.988Z,59.11
2017-07-23T04:04:43.330Z,59.11
2017-07-23T04:05:53.668Z,59.11
2017-07-23T04:07:04.019Z,59.01
2017-07-23T04:08:14.416Z,59.23
2017-07-23T04:09:24.763Z,59.23
2017-07-23T04:10:35.094Z,59.14
2017-07-23T04:11:45.431Z,59.17
2017-07-23T04:12:55.468Z,58.98
2017-07-23T04:14:05.257Z,58.98
2017-07-23T04:15:15.302Z,59.07
2017-07-23T04:16:25.644Z,58.88
2017-07-23T04:17:35.663Z,58.59
2017-07-23T04:18:46.009Z,59.3
2017-07-23T04:19:56.107Z,59.39
2017-07-23T04:21:06.480Z,58.78
2017-07-23T04:22:16.841Z,58.62
2017-07-23T04:23:26.890Z,58.91
2017-07-23T04:24:36.907Z,58.81
2017-07-23T04:25:47.318Z,58.52
2017-07-23T04:26:57.661Z,58.72
2017-07-23T04:28:08.011Z,58.84
2017-07-23T04:29:18.369Z,57.68
2017-07-23T04:30:28.404Z,56.6
2017-07-23T04:31:38.756Z,55.98
2017-07-23T04:32:49.140Z,56.77
2017-07-23T04:33:59.167Z,57.82
2017-07-23T04:35:09.518Z,58.28
2017-07-23T04:36:19.533Z,58.73
2017-07-23T04:37:29.569Z,58.83
2017-07-23T04:38:39.586Z,58.93
2017-07-23T04:39:49.933Z,58.7
2017-07-23T04:41:00.284Z,58.73
2017-07-23T04:42:10.317Z,58.54
2017-07-23T04:43:20.052Z,58.73
2017-07-23T04:44:30.096Z,58.64
2017-07-23T04:45:40.438Z,58.44
2017-07-23T04:46:50.789Z,58.73
2017-07-23T04:48:01.127Z,58.54
2017-07-23T04:49:11.521Z,58.64
2017-07-23T04:50:21.888Z,58.57
2017-07-23T04:51:31.617Z,58.64
2017-07-23T04:52:41.978Z,58.83
2017-07-23T04:53:52.034Z,59.12
2017-07-23T04:55:02.392Z,58.73
2017-07-23T04:56:12.761Z,58.83
2017-07-23T04:57:23.116Z,58.25
2017-07-23T04:58:33.460Z,58.47
2017-07-23T04:59:43.796Z,58.18
2017-07-23T05:00:54.129Z,58.47
2017-07-23T05:02:04.482Z,58.01
2017-07-23T05:03:14.843Z,55.71
2017-07-23T05:04:24.880Z,54.46
2017-07-23T05:05:34.284Z,54.73
2017-07-23T05:06:44.353Z,56.16
2017-07-23T05:07:54.692Z,56.89
2017-07-23T05:09:05.039Z,57.25
2017-07-23T05:10:15.069Z,57.61
2017-07-23T05:11:25.109Z,57.45
2017-07-23T05:12:35.454Z,56.4
2017-07-23T05:13:45.478Z,57.11
2017-07-23T05:14:55.816Z,58.15
2017-07-23T05:16:06.168Z,57.74
2017-07-23T05:17:16.216Z,58.29
2017-07-23T05:18:26.564Z,58.39
2017-07-23T05:19:36.609Z,58.26
2017-07-23T05:20:46.972Z,58.75
2017-07-23T05:21:57.031Z,58.75
2017-07-23T05:23:07.374Z,58.65
2017-07-23T05:24:17.461Z,58.85
2017-07-23T05:25:27.810Z,58.72
2017-07-23T05:26:38.180Z,58.56
2017-07-23T05:27:48.245Z,58.53
2017-07-23T05:28:58.274Z,59.01
2017-07-23T05:30:08.625Z,58.33
2017-07-23T05:31:18.966Z,58.33
2017-07-23T05:32:29.317Z,58.53
2017-07-23T05:33:39.360Z,58.14
2017-07-23T05:34:49.716Z,58.46
2017-07-23T05:36:00.117Z,58.26
2017-07-23T05:37:10.451Z,58.46
2017-07-23T05:38:20.168Z,58.26
2017-07-23T05:39:30.195Z,58.26
2017-07-23T05:40:40.228Z,58.17
2017-07-23T05:41:50.646Z,58.23
2017-07-23T05:43:00.690Z,58.33
2017-07-23T05:44:10.716Z,58.43
2017-07-23T05:45:20.748Z,58.23
2017-07-23T05:46:31.088Z,58.43
2017-07-23T05:47:41.487Z,58.23
2017-07-23T05:48:51.840Z,58.43
2017-07-23T05:50:02.193Z,58.36
2017-07-23T05:51:12.543Z,58.56
2017-07-23T05:52:22.911Z,57.87
2017-07-23T05:53:33.262Z,57.97
2017-07-23T05:54:43.287Z,57.87
2017-07-23T05:55:53.320Z,57.87
2017-07-23T05:57:03.680Z,58.29
2017-07-23T05:58:14.032Z,58.26
2017-07-23T05:59:24.365Z,58.26
2017-07-23T06:00:34.714Z,58.46
2017-07-23T06:01:45.064Z,58.43
2017-07-23T06:02:55.419Z,58.72
2017-07-23T06:04:05.757Z,58.62
2017-07-23T06:05:16.158Z,58.82
2017-07-23T06:06:26.204Z,58.53
2017-07-23T06:07:36.552Z,58.98
2017-07-23T06:08:46.902Z,58.69
2017-07-23T06:09:57.262Z,58.62
2017-07-23T06:11:07.359Z,58.89
2017-07-23T06:12:17.703Z,58.79
2017-07-23T06:13:28.040Z,58.79
2017-07-23T06:14:38.405Z,58.98
2017-07-23T06:15:48.771Z,58.69
2017-07-23T06:16:59.107Z,58.59
2017-07-23T06:18:09.149Z,58.5
2017-07-23T06:19:19.189Z,58.5
2017-07-23T06:20:28.925Z,58.59
2017-07-23T06:21:38.643Z,58.11
2017-07-23T06:22:49.045Z,58.69
2017-07-23T06:23:59.397Z,58.5
2017-07-23T06:25:09.761Z,58.11
2017-07-23T06:26:20.128Z,58.62
2017-07-23T06:27:30.170Z,57.65
2017-07-23T06:28:40.556Z,57.46
2017-07-23T06:29:50.924Z,57.78
2017-07-23T06:31:00.957Z,57.78
2017-07-23T06:32:11.313Z,57.29
2017-07-23T06:33:21.691Z,57.03
2017-07-23T06:34:32.028Z,56.86
2017-07-23T06:35:42.373Z,56.76
2017-07-23T06:36:52.721Z,56.11
2017-07-23T06:38:02.770Z,55.85
2017-07-23T06:39:12.511Z,55.58
2017-07-23T06:40:22.851Z,55.8
2017-07-23T06:41:33.190Z,55.93
2017-07-23T06:42:43.552Z,54.59
2017-07-23T06:43:53.922Z,54.54
2017-07-23T06:45:03.970Z,53.98
2017-07-23T06:46:14.390Z,54.79
2017-07-23T06:47:24.737Z,55.35
2017-07-23T06:48:35.110Z,55.91
2017-07-23T06:49:45.152Z,56.67
2017-07-23T06:50:55.497Z,56.74
2017-07-23T06:52:05.845Z,57.62
2017-07-23T06:53:15.902Z,56.9
2017-07-23T06:54:26.243Z,57.29
2017-07-23T06:55:36.592Z,57.39
2017-07-23T06:56:46.937Z,57.29
2017-07-23T06:57:56.662Z,57.29
2017-07-23T06:59:07.023Z,57.26
2017-07-23T07:00:17.375Z,57.46
2017-07-23T07:01:27.738Z,57.75
2017-07-23T07:02:37.770Z,57.95
2017-07-23T07:03:47.806Z,57.95
2017-07-23T07:04:58.161Z,58.14
2017-07-23T07:06:08.516Z,57.73
2017-07-23T07:07:18.558Z,57.92
2017-07-23T07:08:28.598Z,58.18
2017-07-23T07:09:38.944Z,57.89
2017-07-23T07:10:49.307Z,58.09
2017-07-23T07:11:59.668Z,58.28
2017-07-23T07:13:10.027Z,58.18
2017-07-23T07:14:20.383Z,58.09
2017-07-23T07:15:30.750Z,58.38
2017-07-23T07:16:40.783Z,58.54
2017-07-23T07:17:51.139Z,58.35
2017-07-23T07:19:01.170Z,58.71
2017-07-23T07:20:11.514Z,58.42
2017-07-23T07:21:21.534Z,58.61
2017-07-23T07:22:31.876Z,58.69
2017-07-23T07:23:41.911Z,58.78
2017-07-23T07:24:52.252Z,58.78
2017-07-23T07:26:02.282Z,59.17
2017-07-23T07:27:12.391Z,58.95
2017-07-23T07:28:22.748Z,59.43
2017-07-23T07:29:33.105Z,59.5
2017-07-23T07:30:43.138Z,59.31
2017-07-23T07:31:53.509Z,59.57
2017-07-23T07:33:03.606Z,59.41
2017-07-23T07:34:13.958Z,59.38
2017-07-23T07:35:23.996Z,59.47
2017-07-23T07:36:34.346Z,58.89
2017-07-23T07:37:44.701Z,58.69
2017-07-23T07:38:55.055Z,58.59
2017-07-23T07:40:04.791Z,58.5
2017-07-23T07:41:14.512Z,58.4
2017-07-23T07:42:24.852Z,58.4
2017-07-23T07:43:34.908Z,58.5
2017-07-23T07:44:45.330Z,58.4
2017-07-23T07:45:55.686Z,58.4
2017-07-23T07:47:06.052Z,58.11
2017-07-23T07:48:16.408Z,58.59
2017-07-23T07:49:26.744Z,58.4
2017-07-23T07:50:37.158Z,58.31
2017-07-23T07:51:47.528Z,58.59
2017-07-23T07:52:57.886Z,58.4
2017-07-23T07:54:08.253Z,58.4
2017-07-23T07:55:18.600Z,58.31
2017-07-23T07:56:29.030Z,58.31
2017-07-23T07:57:39.448Z,58.59
2017-07-23T07:58:49.496Z,58.4
2017-07-23T07:59:59.844Z,58.5
2017-07-23T08:01:10.181Z,58.59
2017-07-23T08:02:20.591Z,58.4
2017-07-23T08:03:30.949Z,58.21
2017-07-23T08:04:41.303Z,58.21
2017-07-23T08:05:51.668Z,57.62
2017-07-23T08:07:01.727Z,57.75
2017-07-23T08:08:12.140Z,57.36
2017-07-23T08:09:22.241Z,57.1
2017-07-23T08:10:32.634Z,56.64
2017-07-23T08:11:42.660Z,56.54
2017-07-23T08:12:53.048Z,56.27
2017-07-23T08:14:03.154Z,56.27
2017-07-23T08:15:13.547Z,56.21
2017-07-23T08:16:23.901Z,55.75
2017-07-23T08:17:34.326Z,55.38
2017-07-23T08:18:44.682Z,55.58
2017-07-23T08:19:55.096Z,54.56
2017-07-23T08:21:05.505Z,54.39
2017-07-23T08:22:15.255Z,54.42
2017-07-23T08:23:25.646Z,54.52
2017-07-23T08:24:35.079Z,54.05
2017-07-23T08:25:45.191Z,54.01
2017-07-23T08:26:55.546Z,54.13
2017-07-23T08:28:05.933Z,54.16
2017-07-23T08:29:16.038Z,53.5
2017-07-23T08:30:26.095Z,53.36
2017-07-23T08:31:36.502Z,53.48
2017-07-23T08:32:46.555Z,53.9
2017-07-23T08:33:56.928Z,53.44
2017-07-23T08:35:07.311Z,53.5
2017-07-23T08:36:17.371Z,54.19
2017-07-23T08:37:27.490Z,54.66
2017-07-23T08:38:37.926Z,55.15
2017-07-23T08:39:48.302Z,55.54
2017-07-23T08:40:58.678Z,56.01
2017-07-23T08:42:09.057Z,56.17
2017-07-23T08:43:19.496Z,56.47
2017-07-23T08:44:29.866Z,56.83
2017-07-23T08:45:40.246Z,57
2017-07-23T08:46:50.652Z,57.07
2017-07-23T08:48:01.014Z,57.43
2017-07-23T08:49:11.385Z,57.73
2017-07-23T08:50:21.449Z,57.4
2017-07-23T08:51:31.500Z,57.31
2017-07-23T08:52:41.913Z,56.72
2017-07-23T08:53:52.324Z,56.16
2017-07-23T08:55:02.706Z,55.33
2017-07-23T08:56:13.111Z,55.07
2017-07-23T08:57:23.161Z,55
2017-07-23T08:58:33.792Z,54.83
2017-07-23T08:59:43.576Z,54.83
2017-07-23T09:00:53.951Z,54.83
2017-07-23T09:02:04.328Z,55.02
2017-07-23T09:03:14.399Z,55.15
2017-07-23T09:04:24.460Z,55.02
2017-07-23T09:05:34.523Z,55.32
2017-07-23T09:06:44.896Z,55.51
2017-07-23T09:07:54.981Z,55.51
2017-07-23T09:09:05.354Z,55.61
2017-07-23T09:10:15.423Z,55.41
2017-07-23T09:11:25.877Z,55.22
2017-07-23T09:12:36.249Z,55.22
2017-07-23T09:13:46.647Z,55.22
2017-07-23T09:14:56.386Z,55.41
2017-07-23T09:16:06.220Z,56.1
2017-07-23T09:17:16.324Z,56.3
2017-07-23T09:18:26.367Z,55.68
2017-07-23T09:19:36.494Z,56.07
2017-07-23T09:20:46.834Z,55.98
2017-07-23T09:21:56.930Z,55.78
2017-07-23T09:23:07.412Z,55.98
2017-07-23T09:24:17.788Z,56.05
2017-07-23T09:25:27.866Z,56.15
2017-07-23T09:26:37.938Z,56.05
2017-07-23T09:27:48.307Z,56.15
2017-07-23T09:28:58.734Z,55.95
2017-07-23T09:30:09.168Z,55.58
2017-07-23T09:31:19.525Z,54.93
2017-07-23T09:32:29.909Z,54.95
2017-07-23T09:33:40.252Z,53.9
2017-07-23T09:34:50.356Z,54.1
2017-07-23T09:36:00.739Z,54.52
2017-07-23T09:37:10.797Z,54.81
2017-07-23T09:38:21.164Z,55.1
2017-07-23T09:39:31.202Z,54.81
2017-07-23T09:40:41.254Z,55.18
2017-07-23T09:41:51.616Z,56.13
2017-07-23T09:43:01.694Z,55.83
2017-07-23T09:44:12.079Z,55.54
2017-07-23T09:45:22.448Z,55.24
2017-07-23T09:46:32.869Z,54.95
2017-07-23T09:47:43.224Z,54.85
2017-07-23T09:48:53.617Z,54.88
2017-07-23T09:50:03.954Z,54.78
2017-07-23T09:51:14.009Z,54.91
2017-07-23T09:52:24.458Z,54.93
2017-07-23T09:53:34.857Z,55
2017-07-23T09:54:45.223Z,54.71
2017-07-23T09:55:55.592Z,54.98
2017-07-23T09:57:05.638Z,55.18
2017-07-23T09:58:16.060Z,55.44
2017-07-23T09:59:26.346Z,55.05
2017-07-23T10:00:36.733Z,54.68
2017-07-23T10:01:46.834Z,55.15
2017-07-23T10:02:56.924Z,55.15
2017-07-23T10:04:06.973Z,55.44
2017-07-23T10:05:17.362Z,55.44
2017-07-23T10:06:27.713Z,55.61
2017-07-23T10:07:37.448Z,55.02
2017-07-23T10:08:47.827Z,54.95
2017-07-23T10:09:58.193Z,54.85
2017-07-23T10:11:08.555Z,54.78
2017-07-23T10:12:18.925Z,54.98
2017-07-23T10:13:29.363Z,54.88
2017-07-23T10:14:39.725Z,55.08
2017-07-23T10:15:49.493Z,54.95
2017-07-23T10:16:59.247Z,55.44
2017-07-23T10:18:09.616Z,55.51
2017-07-23T10:19:20.007Z,55.41
2017-07-23T10:20:30.425Z,55.41
2017-07-23T10:21:40.815Z,55.15
2017-07-23T10:22:50.859Z,55.35
2017-07-23T10:24:01.235Z,55.44
2017-07-23T10:25:11.581Z,55.24
2017-07-23T10:26:21.635Z,55.35
2017-07-23T10:27:32.005Z,55.44
2017-07-23T10:28:42.691Z,55.64
2017-07-23T10:29:52.735Z,56.01
2017-07-23T10:31:03.117Z,56.1
2017-07-23T10:32:13.190Z,56.1
2017-07-23T10:33:22.982Z,56.1
2017-07-23T10:34:33.031Z,56.07
2017-07-23T10:35:43.420Z,55.78
2017-07-23T10:36:53.478Z,55.58
2017-07-23T10:38:03.540Z,55.19
2017-07-23T10:39:13.961Z,55
2017-07-23T10:40:24.348Z,54.93
2017-07-23T10:41:34.716Z,54.83
2017-07-23T10:42:45.099Z,55.32
2017-07-23T10:43:55.169Z,55
2017-07-23T10:45:05.576Z,55.12
2017-07-23T10:46:15.949Z,55.19
2017-07-23T10:47:26.311Z,55.02
2017-07-23T10:48:36.702Z,55
2017-07-23T10:49:47.072Z,54.83
2017-07-23T10:50:57.134Z,55.02
2017-07-23T10:52:07.480Z,55.02
2017-07-23T10:53:17.836Z,54.73
2017-07-23T10:54:28.223Z,54.53
2017-07-23T10:55:38.601Z,53.67
2017-07-23T10:56:49.154Z,53.63
2017-07-23T10:57:59.192Z,53.63
2017-07-23T10:59:08.957Z,53.16
2017-07-23T11:00:19.315Z,53.56
2017-07-23T11:01:29.689Z,53.36
2017-07-23T11:02:39.807Z,54.35
2017-07-23T11:03:50.188Z,54.78
2017-07-23T11:05:00.245Z,54.39
2017-07-23T11:06:10.620Z,54.58
2017-07-23T11:07:21.023Z,55.37
2017-07-23T11:08:31.456Z,55.91
2017-07-23T11:09:41.513Z,55.81
2017-07-23T11:10:51.900Z,56.27
2017-07-23T11:12:02.272Z,55.49
2017-07-23T11:13:12.644Z,54.93
2017-07-23T11:14:23.474Z,54.85
2017-07-23T11:15:33.939Z,54.56
2017-07-23T11:16:44.361Z,54.1
2017-07-23T11:17:54.789Z,54.29
2017-07-23T11:19:05.159Z,54.19
2017-07-23T11:20:15.528Z,54.32
2017-07-23T11:21:25.903Z,54.12
2017-07-23T11:22:36.279Z,54.52
2017-07-23T11:23:46.636Z,54.81
2017-07-23T11:24:57.011Z,54.91
2017-07-23T11:26:07.439Z,54.61
2017-07-23T11:27:17.470Z,55.4
2017-07-23T11:28:27.221Z,55.93
2017-07-23T11:29:36.957Z,56.4
2017-07-23T11:30:47.006Z,56.57
2017-07-23T11:31:57.687Z,56.07
2017-07-23T11:33:08.053Z,56.17
2017-07-23T11:34:18.457Z,55.58
2017-07-23T11:35:28.936Z,55.41
2017-07-23T11:36:39.323Z,55.15
2017-07-23T11:37:49.397Z,54.66
2017-07-23T11:38:59.811Z,55.18
2017-07-23T11:40:10.010Z,54.68
2017-07-23T11:41:20.466Z,55.08
2017-07-23T11:42:30.904Z,55.1
2017-07-23T11:43:40.871Z,55.2
2017-07-23T11:44:50.994Z,55
2017-07-23T11:46:01.374Z,54.71
2017-07-23T11:47:11.718Z,55.2
2017-07-23T11:48:21.845Z,54.71
2017-07-23T11:49:32.273Z,55.13
2017-07-23T11:50:42.659Z,54.93
2017-07-23T11:51:53.026Z,55.23
2017-07-23T11:53:03.403Z,55.03
2017-07-23T11:54:13.755Z,55.03
2017-07-23T11:55:24.174Z,54.96
2017-07-23T11:56:34.534Z,54.96
2017-07-23T11:57:45.323Z,55.26
2017-07-23T11:58:55.759Z,55.23
2017-07-23T12:00:05.855Z,55.16
2017-07-23T12:01:16.495Z,55.06
2017-07-23T12:02:26.894Z,55.55
2017-07-23T12:03:37.291Z,56.24
2017-07-23T12:04:47.689Z,56.21
2017-07-23T12:05:58.095Z,56.11
2017-07-23T12:07:08.576Z,55.72
2017-07-23T12:08:18.981Z,55.62
2017-07-23T12:09:29.399Z,55.55
2017-07-23T12:10:39.891Z,55.55
2017-07-23T12:11:49.960Z,55.45
2017-07-23T12:13:00.403Z,55.35
2017-07-23T12:14:10.773Z,55.65
2017-07-23T12:15:21.230Z,56.14
2017-07-23T12:16:31.729Z,56.04
2017-07-23T12:17:42.155Z,56.21
2017-07-23T12:18:52.176Z,56.31
2017-07-23T12:20:02.554Z,56.09
2017-07-23T12:21:12.933Z,55.99
2017-07-23T12:22:23.321Z,56.11
2017-07-23T12:23:33.401Z,56.01
2017-07-23T12:24:43.822Z,56.01
2017-07-23T12:25:53.885Z,55.33
2017-07-23T12:27:04.291Z,54.86
2017-07-23T12:28:14.698Z,54.69
2017-07-23T12:29:24.780Z,54.22
2017-07-23T12:30:35.253Z,54.25
2017-07-23T12:31:45.623Z,54.28
2017-07-23T12:32:56.018Z,54.01
2017-07-23T12:34:06.399Z,53.74
2017-07-23T12:35:16.757Z,53.34
2017-07-23T12:36:27.459Z,53.77
2017-07-23T12:37:37.843Z,53.39
2017-07-23T12:38:47.938Z,53.2
2017-07-23T12:39:57.974Z,53.2
2017-07-23T12:41:08.342Z,53.69
2017-07-23T12:42:18.772Z,53.79
2017-07-23T12:43:28.821Z,53.99
2017-07-23T12:44:39.187Z,54.28
2017-07-23T12:45:49.225Z,54.68
2017-07-23T12:46:59.599Z,54.48
2017-07-23T12:48:09.678Z,54.26
2017-07-23T12:49:20.047Z,55.24
2017-07-23T12:50:30.118Z,55.32
2017-07-23T12:51:40.507Z,55.22
2017-07-23T12:52:50.604Z,56.37
2017-07-23T12:54:00.703Z,56.71
2017-07-23T12:55:10.776Z,57.15
2017-07-23T12:56:21.191Z,57.39
2017-07-23T12:57:31.239Z,57.95
2017-07-23T12:58:41.897Z,58.51
2017-07-23T12:59:51.981Z,58.58
2017-07-23T13:01:02.038Z,57.7
2017-07-23T13:02:12.429Z,57.21
2017-07-23T13:03:22.486Z,57.21
2017-07-23T13:04:32.586Z,56.62
2017-07-23T13:05:42.646Z,56.94
2017-07-23T13:06:53.147Z,56.65
2017-07-23T13:08:03.540Z,56.18
2017-07-23T13:09:13.618Z,55.52
2017-07-23T13:10:24.027Z,55.16
2017-07-23T13:11:34.130Z,55.26
2017-07-23T13:12:44.524Z,55.35
2017-07-23T13:13:54.602Z,54.99
2017-07-23T13:15:05.010Z,55.08
2017-07-23T13:16:15.442Z,55.11
2017-07-23T13:17:25.860Z,55.01
2017-07-23T13:18:36.228Z,55.01
2017-07-23T13:19:46.604Z,55.01
2017-07-23T13:20:57.039Z,55.18
2017-07-23T13:22:07.483Z,55.68
2017-07-23T13:23:17.851Z,55.68
2017-07-23T13:24:28.249Z,55.48
2017-07-23T13:25:38.607Z,55.58
2017-07-23T13:26:49.010Z,56.24
2017-07-23T13:27:59.508Z,56.34
2017-07-23T13:29:09.555Z,55.94
2017-07-23T13:30:19.971Z,56.14
2017-07-23T13:31:29.743Z,56.24
2017-07-23T13:32:40.150Z,56.24
2017-07-23T13:33:50.586Z,55.55
2017-07-23T13:35:00.030Z,55.58
2017-07-23T13:36:10.385Z,55.58
2017-07-23T13:37:20.484Z,55.38
2017-07-23T13:38:30.870Z,55.48
2017-07-23T13:39:41.218Z,55.31
2017-07-23T13:40:51.585Z,55.41
2017-07-23T13:42:01.911Z,55.51
2017-07-23T13:43:12.351Z,55.51
2017-07-23T13:44:22.423Z,55.7
2017-07-23T13:45:32.862Z,55.8
2017-07-23T13:46:42.946Z,56.07
2017-07-23T13:47:53.365Z,56.16
2017-07-23T13:49:03.735Z,56.27
2017-07-23T13:50:14.121Z,56.14
2017-07-23T13:51:24.582Z,56.04
2017-07-23T13:52:34.656Z,56.43
2017-07-23T13:53:44.714Z,56.14
2017-07-23T13:54:54.818Z,56.34
2017-07-23T13:56:04.863Z,56.43
2017-07-23T13:57:15.297Z,56.63
2017-07-23T13:58:25.686Z,56.24
2017-07-23T13:59:36.045Z,56.63
2017-07-23T14:00:46.427Z,56.34
2017-07-23T14:01:56.511Z,56.34
2017-07-23T14:03:06.944Z,56.24
2017-07-23T14:04:17.320Z,56.34
2017-07-23T14:05:27.406Z,56.21
2017-07-23T14:06:37.820Z,56.83
2017-07-23T14:07:48.202Z,56.73
2017-07-23T14:08:58.667Z,56.51
2017-07-23T14:10:09.052Z,56.6
2017-07-23T14:11:18.799Z,57.1
2017-07-23T14:12:29.203Z,56.6
2017-07-23T14:13:39.273Z,56.99
2017-07-23T14:14:49.329Z,56.6
2017-07-23T14:15:59.082Z,56.8
2017-07-23T14:17:09.456Z,56.7
2017-07-23T14:18:19.828Z,56.31
2017-07-23T14:19:29.919Z,56.7
2017-07-23T14:20:40.040Z,56.6
2017-07-23T14:21:50.450Z,56.58
2017-07-23T14:23:00.840Z,56.48
2017-07-23T14:24:11.203Z,56.58
2017-07-23T14:25:21.257Z,56.68
2017-07-23T14:26:31.719Z,56.28
2017-07-23T14:27:42.375Z,56.41
2017-07-23T14:28:52.765Z,56.51
2017-07-23T14:30:03.409Z,56.31
2017-07-23T14:31:13.518Z,56.99
2017-07-23T14:32:23.935Z,56.51
2017-07-23T14:33:34.307Z,56.51
2017-07-23T14:34:44.731Z,56.41
2017-07-23T14:35:55.114Z,57.36
2017-07-23T14:37:04.853Z,57.07
2017-07-23T14:38:15.272Z,57.07
2017-07-23T14:39:25.636Z,57.17
2017-07-23T14:40:36.017Z,56.58
2017-07-23T14:41:46.404Z,56.8
2017-07-23T14:42:56.183Z,56.58
2017-07-23T14:44:06.646Z,56.58
2017-07-23T14:45:16.735Z,56.87
2017-07-23T14:46:27.374Z,56.68
2017-07-23T14:47:37.723Z,56.97
2017-07-23T14:48:48.109Z,56.68
2017-07-23T14:49:57.902Z,56.68
2017-07-23T14:51:08.283Z,57.07
2017-07-23T14:52:18.331Z,56.58
2017-07-23T14:53:28.390Z,56.77
2017-07-23T14:54:38.760Z,57.07
2017-07-23T14:55:49.178Z,56.87
2017-07-23T14:56:59.574Z,57.1
2017-07-23T14:58:09.948Z,56.9
2017-07-23T14:59:20.011Z,56.58
2017-07-23T15:00:30.107Z,56.97
2017-07-23T15:01:40.496Z,56.9
2017-07-23T15:02:50.881Z,56.99
2017-07-23T15:04:01.288Z,56.99
2017-07-23T15:05:11.361Z,57.1
2017-07-23T15:06:21.766Z,56.77
2017-07-23T15:07:32.206Z,56.97
2017-07-23T15:08:42.604Z,56.58
2017-07-23T15:09:52.992Z,57.26
2017-07-23T15:11:03.366Z,56.9
2017-07-23T15:12:13.753Z,56.9
2017-07-23T15:13:24.208Z,57.1
2017-07-23T15:14:34.283Z,56.9
2017-07-23T15:15:44.652Z,56.9
2017-07-23T15:16:54.700Z,57.2
2017-07-23T15:18:05.088Z,57.2
2017-07-23T15:19:15.206Z,56.7
2017-07-23T15:20:25.262Z,57.29
2017-07-23T15:21:35.631Z,57.2
2017-07-23T15:22:46.019Z,56.8
2017-07-23T15:23:56.422Z,57.2
2017-07-23T15:25:06.843Z,57.1
2017-07-23T15:26:17.219Z,56.87
2017-07-23T15:27:27.285Z,57.07
2017-07-23T15:28:37.727Z,56.99
2017-07-23T15:29:48.087Z,56.9
2017-07-23T15:30:58.487Z,57.17
2017-07-23T15:32:08.905Z,57.56
2017-07-23T15:33:18.949Z,57.17
2017-07-23T15:34:29.310Z,57.82
2017-07-23T15:35:39.364Z,57.63
2017-07-23T15:36:49.799Z,57.73
2017-07-23T15:37:59.910Z,57.6
2017-07-23T15:39:09.983Z,57.9
2017-07-23T15:40:20.353Z,57.9
2017-07-23T15:41:30.435Z,57.6
2017-07-23T15:42:40.841Z,57.6